Glenbrook Heights, California
Current Conditions -  °F | °C
As of 9:00 PM on Friday 28 Nov 2014 (Local Time) from KGOO Reporting Station
Overcast Overcast  
Wind Chill: 11°   Ceiling: 5000
Heat Index: 11°   Visibility: 10mi
Dew Point:   Wind: 5mph
Humidity: 47%   Direction: 210°SSW
Pressure: 29.93"   Gusts: 17mph
Location:  39.2183°N, 120.924°W
Report Text: KGOO 290500Z AUTO 21004G15KT 10SM FEW036 BKN050 OVC075 11/00 A2993 RMK AO1
Loading
Personal Weather Stations






























Interactive Weather Map New forecast layout! Learn more

10-Day Weather Forecast

Advertisements
Track Severe Weather on mobile